createdAt,value
2023-01-10T00:00:25.196Z,7.63
2023-01-10T00:05:31.105Z,7.64
2023-01-10T00:10:36.875Z,7.62
2023-01-10T00:15:42.588Z,7.57
2023-01-10T00:20:52.259Z,7.56
2023-01-10T00:25:57.713Z,7.43
2023-01-10T00:31:05.207Z,7.46
2023-01-10T00:36:11.821Z,7.36
2023-01-10T00:41:35.807Z,7.44
2023-01-10T00:46:41.272Z,7.46
2023-01-10T00:51:47.366Z,7.46
2023-01-10T00:56:52.885Z,7.45
2023-01-10T01:01:58.427Z,7.45
2023-01-10T01:07:04.429Z,7.42
2023-01-10T01:12:09.985Z,7.42
2023-01-10T01:17:15.883Z,7.46
2023-01-10T01:22:21.497Z,7.44
2023-01-10T01:27:26.875Z,7.48
2023-01-10T01:32:32.250Z,7.51
2023-01-10T01:37:37.783Z,7.42
2023-01-10T01:42:44.396Z,7.52
2023-01-10T01:48:10.993Z,7.50
2023-01-10T01:53:25.116Z,7.47
2023-01-10T01:58:33.546Z,7.43
2023-01-10T02:03:40.224Z,7.46
2023-01-10T02:08:50.392Z,7.45
2023-01-10T02:13:58.159Z,7.47
2023-01-10T02:19:05.459Z,7.44
2023-01-10T02:24:47.503Z,7.45
2023-01-10T02:30:28.991Z,7.44
2023-01-10T02:35:43.497Z,7.47
2023-01-10T02:40:54.758Z,7.45
2023-01-10T02:46:06.263Z,7.44
2023-01-10T02:51:17.599Z,7.42
2023-01-10T02:56:41.405Z,7.42
2023-01-10T03:01:52.940Z,7.44
2023-01-10T03:07:18.534Z,7.43
2023-01-10T03:12:38.728Z,7.44
2023-01-10T03:17:47.318Z,7.45
2023-01-10T03:22:56.081Z,7.42
2023-01-10T03:28:10.337Z,7.45
2023-01-10T03:33:18.607Z,7.51
2023-01-10T03:38:32.837Z,7.54
2023-01-10T03:44:05.031Z,7.58
2023-01-10T03:49:12.619Z,7.52
2023-01-10T03:54:19.120Z,7.51
2023-01-10T03:59:27.793Z,7.56
2023-01-10T04:04:33.190Z,7.54
2023-01-10T04:09:38.851Z,7.48
2023-01-10T04:14:46.019Z,7.46
2023-01-10T04:19:51.548Z,7.44
2023-01-10T04:24:56.982Z,7.52
2023-01-10T04:30:02.458Z,7.53
2023-01-10T04:35:09.138Z,7.51
2023-01-10T04:40:16.607Z,7.58
2023-01-10T04:45:22.195Z,7.60
2023-01-10T04:50:28.586Z,7.59
2023-01-10T04:55:35.278Z,7.60
2023-01-10T05:00:41.271Z,7.63
2023-01-10T05:05:47.046Z,7.65
2023-01-10T05:10:52.442Z,7.69
2023-01-10T05:15:58.642Z,7.70
2023-01-10T05:21:07.340Z,7.67
2023-01-10T05:26:18.718Z,7.69
2023-01-10T05:31:24.290Z,7.66
2023-01-10T05:36:29.835Z,7.69
2023-01-10T05:41:35.364Z,7.68
2023-01-10T05:46:40.748Z,7.73
2023-01-10T05:51:46.140Z,7.76
2023-01-10T05:56:51.529Z,7.71
2023-01-10T06:01:57.314Z,7.66
2023-01-10T06:07:02.793Z,7.67
2023-01-10T06:12:08.351Z,7.68
2023-01-10T06:17:14.137Z,7.64
2023-01-10T06:22:19.972Z,7.58
2023-01-10T06:27:25.527Z,7.58
2023-01-10T06:32:30.986Z,7.54
2023-01-10T06:37:36.542Z,7.52
2023-01-10T06:42:42.380Z,7.49
2023-01-10T06:47:47.936Z,7.45
2023-01-10T06:52:58.819Z,7.48
2023-01-10T06:58:05.256Z,7.45
2023-01-10T07:03:11.291Z,7.41
2023-01-10T07:08:16.928Z,7.38
2023-01-10T07:13:22.387Z,7.37
2023-01-10T07:18:27.874Z,7.38
2023-01-10T07:23:33.977Z,7.38
2023-01-10T07:28:40.031Z,7.39
2023-01-10T07:33:45.889Z,7.32
2023-01-10T07:38:51.342Z,7.33
2023-01-10T07:43:56.793Z,7.30
2023-01-10T07:49:02.290Z,7.30
2023-01-10T07:54:07.864Z,7.44
2023-01-10T07:59:13.315Z,7.42
2023-01-10T08:04:18.783Z,7.45
2023-01-10T08:09:24.245Z,7.57
2023-01-10T08:14:29.763Z,7.53
2023-01-10T08:19:35.349Z,7.54
2023-01-10T08:24:40.739Z,7.63
2023-01-10T08:29:46.433Z,7.59
2023-01-10T08:34:51.842Z,7.70
2023-01-10T08:39:57.223Z,7.65
2023-01-10T08:45:02.757Z,7.70
2023-01-10T08:50:09.155Z,7.67
2023-01-10T08:55:14.682Z,7.66
2023-01-10T09:00:20.967Z,7.73
2023-01-10T09:05:28.140Z,7.80
2023-01-10T09:10:34.246Z,7.85
2023-01-10T09:15:39.981Z,7.92
2023-01-10T09:20:46.847Z,7.94
2023-01-10T09:25:55.860Z,8.04
2023-01-10T09:31:03.320Z,8.00
2023-01-10T09:36:10.383Z,8.02
2023-01-10T09:41:19.108Z,8.07
2023-01-10T09:46:53.210Z,8.13
2023-01-10T09:51:59.915Z,8.12
2023-01-10T09:57:05.958Z,8.11
2023-01-10T10:02:26.042Z,8.15
2023-01-10T10:07:31.481Z,8.22
2023-01-10T10:12:58.247Z,8.33
2023-01-10T10:18:21.737Z,8.35
2023-01-10T10:23:38.984Z,8.35
2023-01-10T10:29:06.514Z,8.45
2023-01-10T10:34:34.834Z,8.46
2023-01-10T10:39:43.266Z,8.52
2023-01-10T10:44:57.942Z,8.59
2023-01-10T10:50:18.368Z,8.68
2023-01-10T10:55:26.870Z,8.79
2023-01-10T11:00:32.763Z,8.75
2023-01-10T11:05:44.469Z,8.81
2023-01-10T11:10:58.702Z,8.85
2023-01-10T11:16:06.783Z,8.89
2023-01-10T11:21:20.365Z,8.85
2023-01-10T11:26:32.975Z,8.83
2023-01-10T11:31:39.485Z,8.75
2023-01-10T11:37:04.823Z,8.85
2023-01-10T11:42:30.024Z,9.02
2023-01-10T11:47:41.685Z,8.99
2023-01-10T11:52:45.950Z,8.94
2023-01-10T11:57:57.268Z,9.03
2023-01-10T12:03:03.286Z,8.99
2023-01-10T12:08:10.771Z,8.97
2023-01-10T12:13:17.984Z,9.06
2023-01-10T12:18:24.637Z,9.10
2023-01-10T12:23:33.209Z,9.00
2023-01-10T12:28:40.213Z,8.98
2023-01-10T12:33:48.513Z,9.00
2023-01-10T12:39:05.972Z,9.19
2023-01-10T12:44:17.483Z,9.02
2023-01-10T12:49:28.768Z,8.97
2023-01-10T12:54:34.684Z,8.99
2023-01-10T12:59:43.189Z,9.14
2023-01-10T13:04:52.086Z,9.16
2023-01-10T13:09:57.924Z,9.82
2023-01-10T13:15:06.348Z,9.49
2023-01-10T13:20:26.883Z,9.41
2023-01-10T13:25:36.066Z,9.35
2023-01-10T13:30:42.206Z,9.37
2023-01-10T13:35:49.263Z,9.30
2023-01-10T13:41:05.981Z,9.25
2023-01-10T13:46:23.649Z,9.15
2023-01-10T13:51:29.935Z,9.00
2023-01-10T13:56:41.254Z,8.96
2023-01-10T14:02:11.338Z,8.82
2023-01-10T14:07:31.994Z,8.87
2023-01-10T14:12:42.986Z,8.85
2023-01-10T14:18:09.155Z,8.88
2023-01-10T14:23:23.731Z,8.82
2023-01-10T14:28:34.986Z,8.77
2023-01-10T14:33:43.960Z,8.82
2023-01-10T14:38:51.657Z,8.80
2023-01-10T14:44:13.870Z,8.80
2023-01-10T14:49:22.369Z,8.76
2023-01-10T14:54:29.463Z,8.70
2023-01-10T14:59:37.002Z,8.64
2023-01-10T15:04:45.465Z,8.62
2023-01-10T15:09:57.423Z,8.70
2023-01-10T15:15:14.978Z,8.66
2023-01-10T15:20:22.672Z,8.64
2023-01-10T15:25:38.831Z,8.50
2023-01-10T15:30:45.108Z,8.40
2023-01-10T15:35:50.656Z,8.37
2023-01-10T15:41:02.765Z,8.30
2023-01-10T15:46:12.961Z,8.24
2023-01-10T15:51:33.203Z,8.18
2023-01-10T15:56:53.255Z,8.08
2023-01-10T16:02:21.348Z,8.02
2023-01-10T16:07:33.211Z,7.99
2023-01-10T16:12:59.135Z,7.87
2023-01-10T16:18:04.943Z,7.80
2023-01-10T16:23:17.497Z,7.73
2023-01-10T16:28:26.712Z,7.77
2023-01-10T16:33:32.237Z,7.79
2023-01-10T16:38:37.719Z,7.67
2023-01-10T16:43:43.274Z,7.73
2023-01-10T16:48:50.186Z,7.85
2023-01-10T16:53:58.741Z,8.00
2023-01-10T16:59:07.153Z,8.04
2023-01-10T17:04:16.971Z,8.06
2023-01-10T17:09:28.670Z,8.07
2023-01-10T17:14:36.676Z,8.07
2023-01-10T17:19:42.929Z,8.04
2023-01-10T17:24:49.416Z,8.07
2023-01-10T17:29:57.336Z,8.17
2023-01-10T17:35:15.669Z,8.13
2023-01-10T17:40:22.698Z,8.02
2023-01-10T17:45:28.947Z,8.02
2023-01-10T17:51:02.430Z,8.06
2023-01-10T17:56:11.889Z,8.02
2023-01-10T18:01:25.407Z,8.04
2023-01-10T18:06:31.371Z,8.00
2023-01-10T18:11:39.081Z,7.96
2023-01-10T18:16:47.659Z,8.03
2023-01-10T18:21:53.201Z,8.05
2023-01-10T18:26:58.610Z,8.22
2023-01-10T18:32:04.163Z,8.31
2023-01-10T18:37:11.373Z,8.25
2023-01-10T18:42:17.501Z,8.18
2023-01-10T18:47:24.505Z,8.21
2023-01-10T18:52:30.232Z,8.19
2023-01-10T18:57:35.698Z,8.76
2023-01-10T19:02:41.284Z,8.51
2023-01-10T19:07:47.289Z,8.45
2023-01-10T19:12:52.821Z,8.48
2023-01-10T19:17:58.279Z,8.45
2023-01-10T19:23:03.732Z,8.41
2023-01-10T19:28:09.198Z,8.47
2023-01-10T19:33:14.712Z,8.50
2023-01-10T19:38:20.249Z,8.48
2023-01-10T19:43:26.141Z,8.49
2023-01-10T19:48:31.678Z,8.49
2023-01-10T19:53:44.496Z,8.35
2023-01-10T19:58:51.674Z,8.36
2023-01-10T20:04:02.704Z,8.21
2023-01-10T20:09:10.383Z,8.11
2023-01-10T20:14:18.958Z,8.16
2023-01-10T20:19:24.632Z,8.11
2023-01-10T20:24:30.171Z,8.17
2023-01-10T20:29:36.164Z,8.15
2023-01-10T20:34:43.775Z,8.12
2023-01-10T20:39:49.245Z,8.06
2023-01-10T20:44:54.834Z,7.93
2023-01-10T20:50:00.471Z,7.76
2023-01-10T20:55:06.694Z,7.75
2023-01-10T21:00:13.373Z,7.61
2023-01-10T21:05:18.820Z,7.53
2023-01-10T21:10:24.453Z,7.44
2023-01-10T21:15:30.139Z,7.43
2023-01-10T21:20:35.940Z,7.29
2023-01-10T21:25:41.854Z,7.25
2023-01-10T21:30:47.960Z,7.25
2023-01-10T21:36:00.590Z,7.21
2023-01-10T21:41:09.536Z,7.19
2023-01-10T21:46:15.004Z,7.14
2023-01-10T21:51:20.548Z,7.14
2023-01-10T21:56:26.190Z,7.06
2023-01-10T22:01:31.770Z,6.99
2023-01-10T22:06:37.265Z,6.95
2023-01-10T22:11:42.721Z,6.88
2023-01-10T22:16:48.173Z,6.88
2023-01-10T22:21:53.631Z,6.82
2023-01-10T22:27:00.210Z,6.78
2023-01-10T22:32:05.992Z,6.75
2023-01-10T22:37:11.444Z,6.82
2023-01-10T22:42:16.883Z,6.85
2023-01-10T22:47:22.354Z,6.69
2023-01-10T22:52:27.813Z,6.70
2023-01-10T22:57:33.369Z,6.70
2023-01-10T23:02:38.988Z,6.64
2023-01-10T23:07:44.461Z,6.59
2023-01-10T23:12:50.611Z,6.51
2023-01-10T23:17:56.281Z,6.52
2023-01-10T23:23:01.813Z,6.59
2023-01-10T23:28:07.355Z,6.51
2023-01-10T23:33:12.796Z,6.45
2023-01-10T23:38:20.322Z,6.42
2023-01-10T23:43:26.182Z,6.36
2023-01-10T23:48:31.741Z,6.41
2023-01-10T23:53:37.259Z,6.40
2023-01-10T23:58:42.830Z,6.38
